createdAt,value
2022-09-14T00:01:31.037Z,98517.94
2022-09-14T00:04:01.366Z,98511.78
2022-09-14T00:06:31.556Z,98515.84
2022-09-14T00:09:01.963Z,98513.31
2022-09-14T00:11:31.792Z,98524.56
2022-09-14T00:14:01.310Z,98543.13
2022-09-14T00:16:31.337Z,98547.97
2022-09-14T00:19:05.720Z,98547.16
2022-09-14T00:21:34.572Z,98557.19
2022-09-14T00:24:05.103Z,98558.84
2022-09-14T00:26:33.025Z,98557.56
2022-09-14T00:29:04.606Z,98562.97
2022-09-14T00:31:33.804Z,98563.06
2022-09-14T00:34:02.692Z,98570.50
2022-09-14T00:36:31.838Z,98565.63
2022-09-14T00:39:00.876Z,98564.63
2022-09-14T00:41:36.524Z,98568.97
2022-09-14T00:44:06.702Z,98562.03
2022-09-14T00:46:38.166Z,98567.00
2022-09-14T00:49:08.907Z,98555.47
2022-09-14T00:51:40.775Z,98549.88
2022-09-14T00:54:09.554Z,98551.50
2022-09-14T00:56:38.970Z,98557.25
2022-09-14T00:59:11.643Z,98552.16
2022-09-14T01:01:40.073Z,98549.25
2022-09-14T01:04:08.061Z,98552.47
2022-09-14T01:06:40.664Z,98551.19
2022-09-14T01:09:22.435Z,98546.53
2022-09-14T01:12:05.047Z,98531.25
2022-09-14T01:14:43.561Z,98521.34
2022-09-14T01:17:19.265Z,98509.25
2022-09-14T01:20:07.161Z,98514.59
2022-09-14T01:22:41.750Z,98511.13
2022-09-14T01:25:24.691Z,98507.50
2022-09-14T01:27:58.188Z,98513.28
2022-09-14T01:30:26.436Z,98506.09
2022-09-14T01:32:59.284Z,98492.06
2022-09-14T01:35:30.691Z,98500.34
2022-09-14T01:38:03.035Z,98497.88
2022-09-14T01:40:34.382Z,98509.84
2022-09-14T01:43:09.236Z,98507.22
2022-09-14T01:45:42.084Z,98510.44
2022-09-14T01:48:13.841Z,98514.25
2022-09-14T01:50:44.706Z,98518.91
2022-09-14T01:53:17.184Z,98520.00
2022-09-14T01:55:50.223Z,98515.38
2022-09-14T01:58:27.833Z,98513.94
2022-09-14T02:00:58.565Z,98528.72
2022-09-14T02:03:30.430Z,98537.50
2022-09-14T02:06:05.152Z,98515.34
2022-09-14T02:08:34.684Z,98520.75
2022-09-14T02:11:03.165Z,98522.19
2022-09-14T02:13:32.520Z,98503.69
2022-09-14T02:16:00.563Z,98506.91
2022-09-14T02:18:28.582Z,98497.38
2022-09-14T02:21:00.391Z,98499.56
2022-09-14T02:23:28.860Z,98501.88
2022-09-14T02:25:57.051Z,98492.91
2022-09-14T02:28:25.156Z,98483.84
2022-09-14T02:31:07.679Z,98487.88
2022-09-14T02:33:45.977Z,98495.72
2022-09-14T02:36:21.929Z,98491.88
2022-09-14T02:38:57.654Z,98504.47
2022-09-14T02:41:37.251Z,98506.88
2022-09-14T02:44:19.965Z,98505.47
2022-09-14T02:46:56.796Z,98502.72
2022-09-14T02:49:33.483Z,98514.88
2022-09-14T02:52:08.785Z,98515.72
2022-09-14T02:54:41.449Z,98519.31
2022-09-14T02:57:11.184Z,98521.97
2022-09-14T02:59:39.082Z,98514.53
2022-09-14T03:02:08.539Z,98509.06
2022-09-14T03:04:36.551Z,98514.25
2022-09-14T03:07:04.521Z,98504.78
2022-09-14T03:09:32.711Z,98509.47
2022-09-14T03:12:00.609Z,98500.09
2022-09-14T03:14:28.549Z,98504.31
2022-09-14T03:16:56.525Z,98504.16
2022-09-14T03:19:25.863Z,98517.66
2022-09-14T03:21:53.867Z,98522.69
2022-09-14T03:24:21.902Z,98514.63
2022-09-14T03:26:52.192Z,98521.41
2022-09-14T03:29:20.184Z,98514.13
2022-09-14T03:31:48.142Z,98511.31
2022-09-14T03:34:16.472Z,98511.03
2022-09-14T03:36:45.726Z,98492.78
2022-09-14T03:39:13.648Z,98493.22
2022-09-14T03:41:41.555Z,98476.84
2022-09-14T03:44:10.987Z,98474.41
2022-09-14T03:46:39.241Z,98476.00
2022-09-14T03:49:07.563Z,98483.00
2022-09-14T03:51:35.690Z,98477.41
2022-09-14T03:54:05.160Z,98469.53
2022-09-14T03:56:33.087Z,98475.75
2022-09-14T03:59:00.969Z,98476.75
2022-09-14T04:01:28.985Z,98481.75
2022-09-14T04:03:56.965Z,98483.13
2022-09-14T04:06:26.197Z,98490.00
2022-09-14T04:08:55.307Z,98500.44
2022-09-14T04:11:25.854Z,98499.72
2022-09-14T04:13:54.442Z,98496.59
2022-09-14T04:16:23.161Z,98500.72
2022-09-14T04:18:51.119Z,98498.88
2022-09-14T04:21:20.788Z,98502.38
2022-09-14T04:24:13.555Z,98501.53
2022-09-14T04:26:38.284Z,98498.00
2022-09-14T04:29:06.520Z,98495.06
2022-09-14T04:31:34.762Z,98500.88
2022-09-14T04:34:02.759Z,98487.38
2022-09-14T04:36:31.462Z,98495.06
2022-09-14T04:39:03.049Z,98488.75
2022-09-14T04:41:32.584Z,98491.31
2022-09-14T04:44:02.552Z,98498.66
2022-09-14T04:46:32.419Z,98495.53
2022-09-14T04:49:00.648Z,98487.06
2022-09-14T04:51:30.846Z,98489.84
2022-09-14T04:54:01.413Z,98475.47
2022-09-14T04:56:31.866Z,98473.75
2022-09-14T04:59:04.284Z,98476.97
2022-09-14T05:01:34.131Z,98482.84
2022-09-14T05:04:02.271Z,98475.25
2022-09-14T05:06:32.506Z,98482.56
2022-09-14T05:09:01.377Z,98474.47
2022-09-14T05:11:32.005Z,98474.31
2022-09-14T05:14:02.692Z,98470.97
2022-09-14T05:16:32.532Z,98465.53
2022-09-14T05:19:02.409Z,98469.84
2022-09-14T05:21:31.970Z,98472.56
2022-09-14T05:24:01.447Z,98479.59
2022-09-14T05:26:31.104Z,98480.66
2022-09-14T05:29:02.645Z,98484.22
2022-09-14T05:31:32.048Z,98487.59
2022-09-14T05:34:00.450Z,98489.22
2022-09-14T05:36:28.504Z,98486.34
2022-09-14T05:38:57.663Z,98496.69
2022-09-14T05:41:25.687Z,98493.09
2022-09-14T05:43:53.683Z,98493.28
2022-09-14T05:46:23.293Z,98491.72
2022-09-14T05:48:52.018Z,98493.72
2022-09-14T05:51:22.443Z,98497.00
2022-09-14T05:53:51.157Z,98491.75
2022-09-14T05:56:20.345Z,98509.41
2022-09-14T05:58:48.802Z,98524.56
2022-09-14T06:01:19.413Z,98519.50
2022-09-14T06:03:49.724Z,98514.97
2022-09-14T06:06:19.983Z,98522.09
2022-09-14T06:08:52.355Z,98522.69
2022-09-14T06:11:22.026Z,98525.09
2022-09-14T06:16:20.632Z,98518.31
2022-09-14T06:18:51.229Z,98514.63
2022-09-14T06:21:22.349Z,98521.38
2022-09-14T06:23:52.726Z,98530.69
2022-09-14T06:26:23.724Z,98533.22
2022-09-14T06:28:53.638Z,98530.28
2022-09-14T06:31:22.685Z,98529.16
2022-09-14T06:33:52.968Z,98526.72
2022-09-14T06:36:22.715Z,98533.47
2022-09-14T06:38:51.013Z,98543.59
2022-09-14T06:41:21.678Z,98543.44
2022-09-14T06:43:50.645Z,98536.56
2022-09-14T06:46:20.300Z,98547.38
2022-09-14T06:48:50.218Z,98547.50
2022-09-14T06:51:21.350Z,98550.25
2022-09-14T06:53:50.838Z,98553.66
2022-09-14T06:56:19.532Z,98553.13
2022-09-14T06:58:47.769Z,98552.06
2022-09-14T07:01:18.032Z,98546.56
2022-09-14T07:03:47.019Z,98551.38
2022-09-14T07:06:18.106Z,98547.44
2022-09-14T07:08:47.897Z,98565.06
2022-09-14T07:11:18.322Z,98557.47
2022-09-14T07:13:47.246Z,98559.31
2022-09-14T07:16:16.208Z,98561.94
2022-09-14T07:18:44.351Z,98567.16
2022-09-14T07:21:13.781Z,98566.97
2022-09-14T07:23:43.332Z,98558.47
2022-09-14T07:26:14.913Z,98552.56
2022-09-14T07:28:44.503Z,98553.06
2022-09-14T07:31:18.768Z,98557.91
2022-09-14T07:33:46.938Z,98561.69
2022-09-14T07:36:16.376Z,98564.63
2022-09-14T07:38:53.184Z,98571.72
2022-09-14T07:41:23.981Z,98568.88
2022-09-14T07:43:52.488Z,98565.41
2022-09-14T07:46:21.409Z,98566.66
2022-09-14T07:48:50.676Z,98564.84
2022-09-14T07:51:18.929Z,98567.09
2022-09-14T07:53:46.991Z,98564.66
2022-09-14T07:56:16.677Z,98562.75
2022-09-14T07:58:46.430Z,98562.81
2022-09-14T08:01:17.921Z,98559.69
2022-09-14T08:03:49.065Z,98555.53
2022-09-14T08:06:18.676Z,98555.47
2022-09-14T08:08:48.476Z,98561.81
2022-09-14T08:11:18.297Z,98568.84
2022-09-14T08:13:50.775Z,98571.78
2022-09-14T08:16:19.724Z,98570.06
2022-09-14T08:18:48.430Z,98563.59
2022-09-14T08:21:18.037Z,98578.97
2022-09-14T08:23:46.399Z,98586.28
2022-09-14T08:26:16.385Z,98584.66
2022-09-14T08:28:44.575Z,98593.59
2022-09-14T08:31:16.025Z,98588.09
2022-09-14T08:33:45.940Z,98593.00
2022-09-14T08:36:16.168Z,98595.72
2022-09-14T08:38:44.112Z,98598.94
2022-09-14T08:41:26.208Z,98593.09
2022-09-14T08:43:54.423Z,98590.38
2022-09-14T08:46:29.969Z,98600.41
2022-09-14T08:48:58.385Z,98600.63
2022-09-14T08:51:26.891Z,98603.09
2022-09-14T08:53:57.968Z,98604.44
2022-09-14T08:56:30.923Z,98600.56
2022-09-14T08:59:17.066Z,98591.28
2022-09-14T09:01:55.484Z,98591.38
2022-09-14T09:04:40.736Z,98593.91
2022-09-14T09:07:20.079Z,98605.59
2022-09-14T09:09:50.700Z,98605.75
2022-09-14T09:12:21.065Z,98599.91
2022-09-14T09:14:53.293Z,98610.66
2022-09-14T09:17:30.087Z,98607.59
2022-09-14T09:20:07.460Z,98610.56
2022-09-14T09:22:42.000Z,98619.59
2022-09-14T09:25:20.627Z,98627.75
2022-09-14T09:27:48.813Z,98623.59
2022-09-14T09:30:17.921Z,98627.19
2022-09-14T09:32:48.044Z,98618.41
2022-09-14T09:35:18.302Z,98622.25
2022-09-14T09:37:46.279Z,98625.22
2022-09-14T09:40:19.700Z,98627.47
2022-09-14T09:43:24.238Z,98631.31
2022-09-14T09:46:02.992Z,98625.50
2022-09-14T09:48:40.358Z,98629.25
2022-09-14T09:51:12.175Z,98628.34
2022-09-14T09:53:48.499Z,98619.75
2022-09-14T09:56:22.381Z,98634.22
2022-09-14T09:58:52.036Z,98627.13
2022-09-14T10:01:23.315Z,98617.63
2022-09-14T10:04:20.546Z,98624.19
2022-09-14T10:06:50.280Z,98624.47
2022-09-14T10:09:20.896Z,98629.31
2022-09-14T10:11:57.906Z,98627.72
2022-09-14T10:14:31.443Z,98638.25
2022-09-14T10:17:17.693Z,98635.16
2022-09-14T10:19:52.566Z,98632.16
2022-09-14T10:22:28.202Z,98626.88
2022-09-14T10:24:59.063Z,98621.75
2022-09-14T10:27:40.729Z,98626.78
2022-09-14T10:30:15.707Z,98621.50
2022-09-14T10:32:49.405Z,98630.22
2022-09-14T10:35:20.172Z,98629.28
2022-09-14T10:38:08.379Z,98627.44
2022-09-14T10:40:40.712Z,98627.59
2022-09-14T10:43:16.886Z,98628.00
2022-09-14T10:45:51.124Z,98623.06
2022-09-14T10:48:32.167Z,98627.09
2022-09-14T10:51:15.155Z,98628.88
2022-09-14T10:53:50.336Z,98629.69
2022-09-14T10:56:23.167Z,98622.41
2022-09-14T10:59:16.739Z,98617.69
2022-09-14T11:02:18.018Z,98635.22
2022-09-14T11:05:05.157Z,98622.38
2022-09-14T11:07:41.648Z,98622.72
2022-09-14T11:10:20.277Z,98620.69
2022-09-14T11:13:01.910Z,98622.81
2022-09-14T11:15:36.701Z,98620.28
2022-09-14T11:18:20.135Z,98609.44
2022-09-14T11:21:01.260Z,98599.91
2022-09-14T11:23:45.533Z,98610.56
2022-09-14T11:26:19.350Z,98607.97
2022-09-14T11:28:53.113Z,98608.78
2022-09-14T11:31:26.330Z,98606.66
2022-09-14T11:34:01.400Z,98603.81
2022-09-14T11:36:34.222Z,98614.84
2022-09-14T11:39:12.073Z,98608.13
2022-09-14T11:41:47.055Z,98606.03
2022-09-14T11:44:20.309Z,98606.97
2022-09-14T11:46:52.254Z,98605.72
2022-09-14T11:49:25.269Z,98606.66
2022-09-14T11:51:57.045Z,98601.78
2022-09-14T11:54:26.748Z,98608.69
2022-09-14T11:56:59.636Z,98604.81
2022-09-14T11:59:50.913Z,98596.69
2022-09-14T12:02:58.693Z,98607.19
2022-09-14T12:05:36.886Z,98613.28
2022-09-14T12:08:26.031Z,98606.72
2022-09-14T12:11:04.548Z,98614.22
2022-09-14T12:13:32.983Z,98605.22
2022-09-14T12:16:06.324Z,98611.19
2022-09-14T12:18:37.804Z,98617.13
2022-09-14T12:21:09.361Z,98607.56
2022-09-14T12:23:45.649Z,98599.00
2022-09-14T12:26:31.179Z,98596.13
2022-09-14T12:29:05.832Z,98593.13
2022-09-14T12:31:38.875Z,98601.00
2022-09-14T12:34:19.946Z,98595.16
2022-09-14T12:37:03.136Z,98580.44
2022-09-14T12:39:32.708Z,98581.34
2022-09-14T12:42:27.839Z,98580.59
2022-09-14T12:44:56.187Z,98579.88
2022-09-14T12:47:54.117Z,98582.69
2022-09-14T12:50:23.378Z,98582.19
2022-09-14T12:53:13.450Z,98579.41
2022-09-14T12:55:48.577Z,98575.84
2022-09-14T12:58:30.315Z,98573.91
2022-09-14T13:01:12.091Z,98565.00
2022-09-14T13:03:53.178Z,98565.38
2022-09-14T13:06:22.715Z,98562.00
2022-09-14T13:08:54.196Z,98561.22
2022-09-14T13:11:25.873Z,98559.34
2022-09-14T13:13:57.336Z,98555.09
2022-09-14T13:16:38.587Z,98551.00
2022-09-14T13:19:19.439Z,98546.19
2022-09-14T13:21:49.295Z,98544.41
2022-09-14T13:24:25.933Z,98541.66
2022-09-14T13:26:56.122Z,98549.75
2022-09-14T13:29:26.981Z,98547.53
2022-09-14T13:32:02.977Z,98551.28
2022-09-14T13:34:35.389Z,98549.00
2022-09-14T13:37:03.909Z,98543.31
2022-09-14T13:39:34.523Z,98552.22
2022-09-14T13:42:03.301Z,98549.75
2022-09-14T13:44:35.225Z,98538.88
2022-09-14T13:47:06.021Z,98542.66
2022-09-14T13:49:35.901Z,98546.50
2022-09-14T13:52:49.748Z,98555.09
2022-09-14T13:55:24.236Z,98549.78
2022-09-14T13:58:24.080Z,98547.44
2022-09-14T14:00:57.176Z,98541.78
2022-09-14T14:03:32.520Z,98529.03
2022-09-14T14:06:03.164Z,98528.88
2022-09-14T14:08:35.854Z,98537.44
2022-09-14T14:11:06.930Z,98521.50
2022-09-14T14:13:37.007Z,98515.03
2022-09-14T14:16:17.980Z,98518.63
2022-09-14T14:18:52.499Z,98522.06
2022-09-14T14:21:29.820Z,98522.56
2022-09-14T14:24:27.865Z,98510.34
2022-09-14T14:26:58.430Z,98516.59
2022-09-14T14:29:27.002Z,98524.16
2022-09-14T14:31:58.417Z,98514.78
2022-09-14T14:34:28.453Z,98517.31
2022-09-14T14:36:57.682Z,98511.78
2022-09-14T14:39:28.991Z,98504.78
2022-09-14T14:41:57.448Z,98512.97
2022-09-14T14:44:28.270Z,98502.53
2022-09-14T14:46:58.253Z,98507.94
2022-09-14T14:49:26.529Z,98497.50
2022-09-14T14:51:54.794Z,98510.47
2022-09-14T14:54:22.706Z,98497.03
2022-09-14T14:56:52.617Z,98497.53
2022-09-14T14:59:28.663Z,98499.16
2022-09-14T15:01:59.294Z,98497.78
2022-09-14T15:04:27.228Z,98505.53
2022-09-14T15:06:55.311Z,98499.38
2022-09-14T15:09:26.203Z,98502.28
2022-09-14T15:11:55.296Z,98505.91
2022-09-14T15:14:27.095Z,98498.50
2022-09-14T15:17:00.157Z,98500.06
2022-09-14T15:19:28.869Z,98499.50
2022-09-14T15:22:00.960Z,98497.66
2022-09-14T15:24:29.322Z,98489.22
2022-09-14T15:26:57.570Z,98500.34
2022-09-14T15:29:25.654Z,98507.09
2022-09-14T15:31:53.627Z,98494.56
2022-09-14T15:34:22.959Z,98489.28
2022-09-14T15:36:52.723Z,98499.25
2022-09-14T15:39:23.172Z,98498.56
2022-09-14T15:41:51.352Z,98505.28
2022-09-14T15:44:20.138Z,98511.06
2022-09-14T15:46:48.481Z,98508.69
2022-09-14T15:49:19.497Z,98497.22
2022-09-14T15:51:51.165Z,98505.09
2022-09-14T15:54:19.978Z,98497.97
2022-09-14T15:56:50.642Z,98496.91
2022-09-14T15:59:19.398Z,98503.28
2022-09-14T16:01:47.801Z,98512.34
2022-09-14T16:04:16.123Z,98514.81
2022-09-14T16:06:44.141Z,98508.66
2022-09-14T16:09:15.085Z,98513.38
2022-09-14T16:11:43.795Z,98514.94
2022-09-14T16:14:12.461Z,98509.09
2022-09-14T16:16:41.564Z,98518.22
2022-09-14T16:19:12.605Z,98526.47
2022-09-14T16:21:41.766Z,98527.75
2022-09-14T16:24:12.360Z,98529.34
2022-09-14T16:26:42.141Z,98534.22
2022-09-14T16:29:12.901Z,98543.75
2022-09-14T16:31:42.593Z,98547.50
2022-09-14T16:34:13.550Z,98553.25
2022-09-14T16:36:42.303Z,98561.59
2022-09-14T16:39:12.895Z,98567.44
2022-09-14T16:41:42.849Z,98569.78
2022-09-14T16:44:14.268Z,98572.44
2022-09-14T16:46:42.760Z,98590.91
2022-09-14T16:49:10.778Z,98573.13
2022-09-14T16:51:39.505Z,98588.38
2022-09-14T16:54:08.221Z,98586.84
2022-09-14T16:56:38.468Z,98597.03
2022-09-14T16:59:08.549Z,98602.72
2022-09-14T17:01:38.759Z,98603.91
2022-09-14T17:04:09.624Z,98604.16
2022-09-14T17:06:39.288Z,98616.81
2022-09-14T17:09:09.574Z,98610.75
2022-09-14T17:11:39.146Z,98618.34
2022-09-14T17:14:10.053Z,98615.16
2022-09-14T17:16:38.211Z,98620.56
2022-09-14T17:19:06.318Z,98631.88
2022-09-14T17:21:36.622Z,98633.34
2022-09-14T17:24:06.439Z,98630.00
2022-09-14T17:26:35.395Z,98632.75
2022-09-14T17:29:05.216Z,98628.41
2022-09-14T17:31:36.803Z,98631.31
2022-09-14T17:34:06.265Z,98633.88
2022-09-14T17:36:34.851Z,98633.06
2022-09-14T17:39:10.686Z,98640.31
2022-09-14T17:41:43.726Z,98657.06
2022-09-14T17:44:16.168Z,98648.41
2022-09-14T17:46:52.583Z,98661.94
2022-09-14T17:49:22.995Z,98668.69
2022-09-14T17:51:51.780Z,98670.53
2022-09-14T17:54:20.709Z,98671.72
2022-09-14T17:56:48.898Z,98675.66
2022-09-14T17:59:20.311Z,98678.94
2022-09-14T18:01:51.085Z,98684.56
2022-09-14T18:04:19.317Z,98687.28
2022-09-14T18:06:49.822Z,98694.13
2022-09-14T18:09:22.175Z,98701.72
2022-09-14T18:11:50.815Z,98706.38
2022-09-14T18:14:19.357Z,98710.91
2022-09-14T18:16:47.787Z,98716.31
2022-09-14T18:19:17.526Z,98712.81
2022-09-14T18:21:50.321Z,98723.16
2022-09-14T18:24:21.083Z,98735.72
2022-09-14T18:26:49.234Z,98737.38
2022-09-14T18:29:18.735Z,98739.34
2022-09-14T18:31:47.244Z,98746.75
2022-09-14T18:34:15.247Z,98747.72
2022-09-14T18:36:44.544Z,98755.94
2022-09-14T18:39:13.277Z,98760.28
2022-09-14T18:41:41.560Z,98765.81
2022-09-14T18:44:09.459Z,98769.44
2022-09-14T18:46:38.682Z,98772.03
2022-09-14T18:49:06.643Z,98767.69
2022-09-14T18:51:34.540Z,98778.00
2022-09-14T18:54:05.775Z,98779.75
2022-09-14T18:56:34.882Z,98793.78
2022-09-14T18:59:04.069Z,98790.13
2022-09-14T19:01:32.361Z,98792.75
2022-09-14T19:04:02.683Z,98796.13
2022-09-14T19:06:31.320Z,98802.47
2022-09-14T19:08:59.641Z,98812.78
2022-09-14T19:11:31.258Z,98812.78
2022-09-14T19:14:01.503Z,98820.50
2022-09-14T19:16:30.886Z,98827.41
2022-09-14T19:18:59.853Z,98837.19
2022-09-14T19:21:31.211Z,98840.00
2022-09-14T19:24:01.263Z,98847.06
2022-09-14T19:26:33.056Z,98853.25
2022-09-14T19:29:02.211Z,98853.47
2022-09-14T19:31:30.713Z,98863.66
2022-09-14T19:33:59.604Z,98869.25
2022-09-14T19:36:28.459Z,98876.75
2022-09-14T19:38:58.166Z,98876.44
2022-09-14T19:41:26.416Z,98888.94
2022-09-14T19:43:56.022Z,98901.84
2022-09-14T19:46:24.383Z,98902.25
2022-09-14T19:48:53.094Z,98914.00
2022-09-14T19:51:22.798Z,98915.28
2022-09-14T19:53:52.582Z,98924.16
2022-09-14T19:56:22.485Z,98919.31
2022-09-14T19:58:52.332Z,98915.00
2022-09-14T20:01:23.818Z,98920.22
2022-09-14T20:03:52.147Z,98918.16
2022-09-14T20:06:23.712Z,98923.22
2022-09-14T20:08:53.580Z,98917.72
2022-09-14T20:11:24.086Z,98931.66
2022-09-14T20:13:55.132Z,98926.56
2022-09-14T20:16:27.981Z,98932.97
2022-09-14T20:18:57.516Z,98930.81
2022-09-14T20:21:27.511Z,98926.63
2022-09-14T20:24:15.028Z,98931.41
2022-09-14T20:26:44.004Z,98934.06
2022-09-14T20:29:12.076Z,98935.91
2022-09-14T20:31:41.385Z,98937.28
2022-09-14T20:34:09.655Z,98935.75
2022-09-14T20:36:38.827Z,98944.75
2022-09-14T20:39:06.794Z,98947.09
2022-09-14T20:41:36.040Z,98947.34
2022-09-14T20:44:04.962Z,98946.22
2022-09-14T20:46:35.399Z,98946.00
2022-09-14T20:49:06.214Z,98949.13
2022-09-14T20:51:35.835Z,98942.53
2022-09-14T20:54:03.859Z,98940.69
2022-09-14T20:56:34.336Z,98945.91
2022-09-14T20:59:04.970Z,98945.63
2022-09-14T21:01:34.776Z,98952.69
2022-09-14T21:04:06.719Z,98960.78
2022-09-14T21:06:37.234Z,98955.38
2022-09-14T21:09:05.381Z,98952.31
2022-09-14T21:11:33.786Z,98964.50
2022-09-14T21:14:02.344Z,98964.28
2022-09-14T21:16:33.047Z,98959.16
2022-09-14T21:19:02.791Z,98964.09
2022-09-14T21:21:32.423Z,98964.72
2022-09-14T21:24:01.017Z,98970.25
2022-09-14T21:26:34.129Z,98969.88
2022-09-14T21:29:06.340Z,98981.47
2022-09-14T21:31:36.319Z,98982.41
2022-09-14T21:34:06.096Z,98979.50
2022-09-14T21:36:37.768Z,98987.19
2022-09-14T21:39:09.282Z,98991.69
2022-09-14T21:41:38.592Z,98992.53
2022-09-14T21:44:06.774Z,98990.06
2022-09-14T21:46:35.532Z,98993.69
2022-09-14T21:49:03.574Z,98996.75
2022-09-14T21:51:33.545Z,98997.56
2022-09-14T21:54:06.169Z,98998.44
2022-09-14T21:56:36.883Z,98996.81
2022-09-14T21:59:08.060Z,98991.78
2022-09-14T22:01:36.289Z,98997.78
2022-09-14T22:04:06.508Z,98991.91
2022-09-14T22:06:35.656Z,99004.97
2022-09-14T22:09:05.044Z,99007.53
2022-09-14T22:11:35.104Z,99001.31
2022-09-14T22:14:05.816Z,99004.72
2022-09-14T22:16:35.601Z,99002.88
2022-09-14T22:19:05.681Z,99002.22
2022-09-14T22:21:35.667Z,98999.31
2022-09-14T22:24:07.420Z,99005.44
2022-09-14T22:26:36.548Z,99001.75
2022-09-14T22:29:05.564Z,99002.94
2022-09-14T22:31:34.245Z,99009.09
2022-09-14T22:34:02.184Z,99004.00
2022-09-14T22:36:30.118Z,99011.88
2022-09-14T22:38:59.429Z,99007.00
2022-09-14T22:41:29.849Z,99004.81
2022-09-14T22:43:58.137Z,98998.16
2022-09-14T22:46:26.730Z,99007.06
2022-09-14T22:48:54.958Z,99008.78
2022-09-14T22:51:26.009Z,99004.09
2022-09-14T22:53:54.210Z,99012.63
2022-09-14T22:56:24.463Z,99014.38
2022-09-14T22:58:54.356Z,99009.16
2022-09-14T23:01:25.108Z,99008.47
2022-09-14T23:03:57.335Z,99006.44
2022-09-14T23:06:29.712Z,98996.63
2022-09-14T23:08:58.246Z,99003.69
2022-09-14T23:11:26.328Z,99006.25
2022-09-14T23:13:57.785Z,99009.97
2022-09-14T23:16:27.783Z,99013.28
2022-09-14T23:18:57.628Z,99016.63
2022-09-14T23:21:25.931Z,99013.63
2022-09-14T23:23:54.898Z,99017.13
2022-09-14T23:26:23.910Z,99015.50
2022-09-14T23:28:53.636Z,99015.06
2022-09-14T23:31:23.930Z,99011.38
2022-09-14T23:33:53.089Z,99016.38
2022-09-14T23:36:22.176Z,99014.63
2022-09-14T23:38:50.489Z,99011.84
2022-09-14T23:41:20.249Z,99009.34
2022-09-14T23:43:48.740Z,99013.53
2022-09-14T23:46:17.673Z,99014.19
2022-09-14T23:48:48.048Z,99018.78
2022-09-14T23:51:16.855Z,99014.38
2022-09-14T23:53:44.851Z,99005.03
2022-09-14T23:56:13.076Z,99004.09
2022-09-14T23:58:42.351Z,98999.75
